sensor_id;sensor_type;location;lat;lon;timestamp;temperature;humidity
47791;DHT22;33547;49.044;1.156;2022-11-23T00:01:22;19.50;56.70
47791;DHT22;33547;49.044;1.156;2022-11-23T00:03:51;19.50;56.70
47791;DHT22;33547;49.044;1.156;2022-11-23T00:06:19;19.50;56.70
47791;DHT22;33547;49.044;1.156;2022-11-23T00:08:46;19.40;56.60
47791;DHT22;33547;49.044;1.156;2022-11-23T00:11:12;19.50;56.70
47791;DHT22;33547;49.044;1.156;2022-11-23T00:13:39;19.50;56.70
47791;DHT22;33547;49.044;1.156;2022-11-23T00:16:11;19.40;56.60
47791;DHT22;33547;49.044;1.156;2022-11-23T00:18:38;19.40;56.60
47791;DHT22;33547;49.044;1.156;2022-11-23T00:21:05;19.40;56.60
47791;DHT22;33547;49.044;1.156;2022-11-23T00:23:32;19.40;57.20
47791;DHT22;33547;49.044;1.156;2022-11-23T00:25:58;19.40;56.60
47791;DHT22;33547;49.044;1.156;2022-11-23T00:28:24;19.40;56.60
47791;DHT22;33547;49.044;1.156;2022-11-23T00:30:50;19.30;56.60
47791;DHT22;33547;49.044;1.156;2022-11-23T00:33:16;19.30;56.50
47791;DHT22;33547;49.044;1.156;2022-11-23T00:35:42;19.30;56.60
47791;DHT22;33547;49.044;1.156;2022-11-23T00:38:08;19.20;56.50
47791;DHT22;33547;49.044;1.156;2022-11-23T00:40:34;19.30;56.60
47791;DHT22;33547;49.044;1.156;2022-11-23T00:43:00;19.20;56.50
47791;DHT22;33547;49.044;1.156;2022-11-23T00:45:26;19.20;56.50
47791;DHT22;33547;49.044;1.156;2022-11-23T00:47:52;19.20;56.50
47791;DHT22;33547;49.044;1.156;2022-11-23T00:50:18;19.20;56.50
47791;DHT22;33547;49.044;1.156;2022-11-23T00:52:43;19.20;56.50
47791;DHT22;33547;49.044;1.156;2022-11-23T00:55:09;19.20;56.60
47791;DHT22;33547;49.044;1.156;2022-11-23T00:57:35;19.10;56.60
47791;DHT22;33547;49.044;1.156;2022-11-23T01:00:01;19.10;56.60
47791;DHT22;33547;49.044;1.156;2022-11-23T01:02:27;19.10;56.70
47791;DHT22;33547;49.044;1.156;2022-11-23T01:04:53;19.10;56.70
47791;DHT22;33547;49.044;1.156;2022-11-23T01:07:19;19.10;56.70
47791;DHT22;33547;49.044;1.156;2022-11-23T01:09:45;19.10;56.70
47791;DHT22;33547;49.044;1.156;2022-11-23T01:12:10;19.10;56.80
47791;DHT22;33547;49.044;1.156;2022-11-23T01:14:37;19.00;56.70
47791;DHT22;33547;49.044;1.156;2022-11-23T01:17:02;19.00;56.80
47791;DHT22;33547;49.044;1.156;2022-11-23T01:19:28;19.00;56.90
47791;DHT22;33547;49.044;1.156;2022-11-23T01:21:54;19.00;56.90
47791;DHT22;33547;49.044;1.156;2022-11-23T01:24:21;19.00;56.90
47791;DHT22;33547;49.044;1.156;2022-11-23T01:26:52;19.00;56.90
47791;DHT22;33547;49.044;1.156;2022-11-23T01:29:19;19.00;56.90
47791;DHT22;33547;49.044;1.156;2022-11-23T01:31:48;18.90;56.90
47791;DHT22;33547;49.044;1.156;2022-11-23T01:34:14;18.90;56.90
47791;DHT22;33547;49.044;1.156;2022-11-23T01:36:42;18.90;57.00
47791;DHT22;33547;49.044;1.156;2022-11-23T01:39:09;18.90;57.00
47791;DHT22;33547;49.044;1.156;2022-11-23T01:41:39;18.90;57.00
47791;DHT22;33547;49.044;1.156;2022-11-23T01:44:28;18.90;57.00
47791;DHT22;33547;49.044;1.156;2022-11-23T01:47:00;18.90;57.60
47791;DHT22;33547;49.044;1.156;2022-11-23T01:49:32;18.90;58.70
47791;DHT22;33547;49.044;1.156;2022-11-23T01:52:10;18.90;58.90
47791;DHT22;33547;49.044;1.156;2022-11-23T01:54:45;18.90;58.80
47791;DHT22;33547;49.044;1.156;2022-11-23T01:57:16;19.00;58.80
47791;DHT22;33547;49.044;1.156;2022-11-23T01:59:45;19.00;58.80
47791;DHT22;33547;49.044;1.156;2022-11-23T02:02:13;19.00;58.40
47791;DHT22;33547;49.044;1.156;2022-11-23T02:04:42;19.00;58.40
47791;DHT22;33547;49.044;1.156;2022-11-23T02:07:11;19.10;58.50
47791;DHT22;33547;49.044;1.156;2022-11-23T02:09:38;19.10;58.40
47791;DHT22;33547;49.044;1.156;2022-11-23T02:12:10;19.10;58.50
47791;DHT22;33547;49.044;1.156;2022-11-23T02:14:37;19.10;58.60
47791;DHT22;33547;49.044;1.156;2022-11-23T02:17:03;19.10;58.60
47791;DHT22;33547;49.044;1.156;2022-11-23T02:22:31;19.20;58.90
47791;DHT22;33547;49.044;1.156;2022-11-23T02:25:08;19.20;58.90
47791;DHT22;33547;49.044;1.156;2022-11-23T02:27:47;19.10;59.20
47791;DHT22;33547;49.044;1.156;2022-11-23T02:30:13;19.10;59.60
47791;DHT22;33547;49.044;1.156;2022-11-23T02:32:39;19.20;59.70
47791;DHT22;33547;49.044;1.156;2022-11-23T02:35:05;19.10;59.70
47791;DHT22;33547;49.044;1.156;2022-11-23T02:37:31;19.10;59.70
47791;DHT22;33547;49.044;1.156;2022-11-23T02:39:58;19.10;59.80
47791;DHT22;33547;49.044;1.156;2022-11-23T02:42:26;19.10;59.80
47791;DHT22;33547;49.044;1.156;2022-11-23T02:45:18;19.10;59.80
47791;DHT22;33547;49.044;1.156;2022-11-23T02:47:48;19.10;60.20
47791;DHT22;33547;49.044;1.156;2022-11-23T02:50:14;19.10;60.00
47791;DHT22;33547;49.044;1.156;2022-11-23T02:52:40;19.10;60.00
47791;DHT22;33547;49.044;1.156;2022-11-23T02:55:06;19.10;60.00
47791;DHT22;33547;49.044;1.156;2022-11-23T02:57:32;19.00;59.90
47791;DHT22;33547;49.044;1.156;2022-11-23T02:59:58;19.00;59.90
47791;DHT22;33547;49.044;1.156;2022-11-23T03:02:23;19.00;59.90
47791;DHT22;33547;49.044;1.156;2022-11-23T03:04:49;19.00;59.90
47791;DHT22;33547;49.044;1.156;2022-11-23T03:07:15;19.00;59.90
47791;DHT22;33547;49.044;1.156;2022-11-23T03:09:41;19.00;60.00
47791;DHT22;33547;49.044;1.156;2022-11-23T03:12:06;19.00;60.00
47791;DHT22;33547;49.044;1.156;2022-11-23T03:14:33;18.90;59.90
47791;DHT22;33547;49.044;1.156;2022-11-23T03:16:59;18.90;59.90
47791;DHT22;33547;49.044;1.156;2022-11-23T03:19:25;18.90;59.80
47791;DHT22;33547;49.044;1.156;2022-11-23T03:21:50;18.90;59.80
47791;DHT22;33547;49.044;1.156;2022-11-23T03:24:16;18.90;59.80
47791;DHT22;33547;49.044;1.156;2022-11-23T03:26:42;18.90;59.80
47791;DHT22;33547;49.044;1.156;2022-11-23T03:29:08;18.90;59.70
47791;DHT22;33547;49.044;1.156;2022-11-23T03:31:34;18.90;59.90
47791;DHT22;33547;49.044;1.156;2022-11-23T03:34:00;18.80;59.80
47791;DHT22;33547;49.044;1.156;2022-11-23T03:36:26;18.80;59.70
47791;DHT22;33547;49.044;1.156;2022-11-23T03:38:51;18.80;59.60
47791;DHT22;33547;49.044;1.156;2022-11-23T03:41:17;18.80;59.60
47791;DHT22;33547;49.044;1.156;2022-11-23T03:43:43;18.80;59.50
47791;DHT22;33547;49.044;1.156;2022-11-23T03:46:09;18.80;59.40
47791;DHT22;33547;49.044;1.156;2022-11-23T03:48:35;18.80;59.30
47791;DHT22;33547;49.044;1.156;2022-11-23T03:51:00;18.80;59.20
47791;DHT22;33547;49.044;1.156;2022-11-23T03:53:26;18.70;59.20
47791;DHT22;33547;49.044;1.156;2022-11-23T03:55:52;18.70;59.10
47791;DHT22;33547;49.044;1.156;2022-11-23T03:58:20;18.70;59.10
47791;DHT22;33547;49.044;1.156;2022-11-23T04:00:46;18.70;59.10
47791;DHT22;33547;49.044;1.156;2022-11-23T04:03:12;18.70;59.10
47791;DHT22;33547;49.044;1.156;2022-11-23T04:05:38;18.70;59.10
47791;DHT22;33547;49.044;1.156;2022-11-23T04:08:04;18.70;59.80
47791;DHT22;33547;49.044;1.156;2022-11-23T04:10:30;18.70;59.80
47791;DHT22;33547;49.044;1.156;2022-11-23T04:12:55;18.80;60.10
47791;DHT22;33547;49.044;1.156;2022-11-23T04:15:21;18.80;59.90
47791;DHT22;33547;49.044;1.156;2022-11-23T04:17:47;18.80;59.70
47791;DHT22;33547;49.044;1.156;2022-11-23T04:20:13;18.80;59.60
47791;DHT22;33547;49.044;1.156;2022-11-23T04:22:39;18.90;59.60
47791;DHT22;33547;49.044;1.156;2022-11-23T04:25:05;18.90;59.60
47791;DHT22;33547;49.044;1.156;2022-11-23T04:27:31;18.90;59.60
47791;DHT22;33547;49.044;1.156;2022-11-23T04:29:57;18.90;59.50
47791;DHT22;33547;49.044;1.156;2022-11-23T04:32:23;19.00;59.70
47791;DHT22;33547;49.044;1.156;2022-11-23T04:34:49;19.00;59.70
47791;DHT22;33547;49.044;1.156;2022-11-23T04:37:14;19.00;59.70
47791;DHT22;33547;49.044;1.156;2022-11-23T04:39:40;19.00;59.80
47791;DHT22;33547;49.044;1.156;2022-11-23T04:42:06;19.00;59.90
47791;DHT22;33547;49.044;1.156;2022-11-23T04:44:33;19.00;60.00
47791;DHT22;33547;49.044;1.156;2022-11-23T04:46:59;19.00;60.10
47791;DHT22;33547;49.044;1.156;2022-11-23T04:49:25;19.00;60.30
47791;DHT22;33547;49.044;1.156;2022-11-23T04:51:50;19.00;60.40
47791;DHT22;33547;49.044;1.156;2022-11-23T04:54:16;19.00;60.60
47791;DHT22;33547;49.044;1.156;2022-11-23T04:56:42;19.00;60.60
47791;DHT22;33547;49.044;1.156;2022-11-23T04:59:08;19.00;60.70
47791;DHT22;33547;49.044;1.156;2022-11-23T05:01:33;19.00;60.70
47791;DHT22;33547;49.044;1.156;2022-11-23T05:03:59;18.90;60.70
47791;DHT22;33547;49.044;1.156;2022-11-23T05:06:25;18.90;60.70
47791;DHT22;33547;49.044;1.156;2022-11-23T05:08:51;18.90;60.80
47791;DHT22;33547;49.044;1.156;2022-11-23T05:11:17;18.90;60.90
47791;DHT22;33547;49.044;1.156;2022-11-23T05:13:44;19.00;60.80
47791;DHT22;33547;49.044;1.156;2022-11-23T05:16:10;19.00;60.60
47791;DHT22;33547;49.044;1.156;2022-11-23T05:18:35;19.00;60.40
47791;DHT22;33547;49.044;1.156;2022-11-23T05:21:01;19.00;60.30
47791;DHT22;33547;49.044;1.156;2022-11-23T05:23:27;19.10;60.20
47791;DHT22;33547;49.044;1.156;2022-11-23T05:25:53;19.10;60.20
47791;DHT22;33547;49.044;1.156;2022-11-23T05:28:20;19.10;60.10
47791;DHT22;33547;49.044;1.156;2022-11-23T05:30:46;19.20;60.20
47791;DHT22;33547;49.044;1.156;2022-11-23T05:33:13;19.20;60.30
47791;DHT22;33547;49.044;1.156;2022-11-23T05:35:39;19.20;60.20
47791;DHT22;33547;49.044;1.156;2022-11-23T05:38:05;19.30;60.40
47791;DHT22;33547;49.044;1.156;2022-11-23T05:40:31;19.20;60.30
47791;DHT22;33547;49.044;1.156;2022-11-23T05:42:57;19.30;60.30
47791;DHT22;33547;49.044;1.156;2022-11-23T05:45:24;19.30;60.30
47791;DHT22;33547;49.044;1.156;2022-11-23T05:47:52;19.40;60.50
47791;DHT22;33547;49.044;1.156;2022-11-23T05:50:20;19.40;60.50
47791;DHT22;33547;49.044;1.156;2022-11-23T05:52:47;19.40;60.50
47791;DHT22;33547;49.044;1.156;2022-11-23T05:55:14;19.40;60.80
47791;DHT22;33547;49.044;1.156;2022-11-23T05:57:40;19.40;60.50
47791;DHT22;33547;49.044;1.156;2022-11-23T06:00:07;19.40;60.50
47791;DHT22;33547;49.044;1.156;2022-11-23T06:02:37;19.50;60.50
47791;DHT22;33547;49.044;1.156;2022-11-23T06:05:03;19.50;60.50
47791;DHT22;33547;49.044;1.156;2022-11-23T06:07:33;19.50;60.50
47791;DHT22;33547;49.044;1.156;2022-11-23T06:10:04;19.50;60.50
47791;DHT22;33547;49.044;1.156;2022-11-23T06:12:31;19.60;60.40
47791;DHT22;33547;49.044;1.156;2022-11-23T06:14:57;19.60;60.50
47791;DHT22;33547;49.044;1.156;2022-11-23T06:17:23;19.60;60.30
47791;DHT22;33547;49.044;1.156;2022-11-23T06:19:49;19.70;60.40
47791;DHT22;33547;49.044;1.156;2022-11-23T06:22:15;19.70;60.40
47791;DHT22;33547;49.044;1.156;2022-11-23T06:24:41;19.70;60.40
47791;DHT22;33547;49.044;1.156;2022-11-23T06:27:08;19.70;60.40
47791;DHT22;33547;49.044;1.156;2022-11-23T06:29:34;19.70;60.30
47791;DHT22;33547;49.044;1.156;2022-11-23T06:32:00;19.80;60.30
47791;DHT22;33547;49.044;1.156;2022-11-23T06:34:25;19.80;60.40
47791;DHT22;33547;49.044;1.156;2022-11-23T06:36:51;19.80;60.30
47791;DHT22;33547;49.044;1.156;2022-11-23T06:39:17;19.80;60.20
47791;DHT22;33547;49.044;1.156;2022-11-23T06:41:43;19.80;60.20
47791;DHT22;33547;49.044;1.156;2022-11-23T06:44:09;19.90;60.30
47791;DHT22;33547;49.044;1.156;2022-11-23T06:46:34;19.90;60.30
47791;DHT22;33547;49.044;1.156;2022-11-23T06:49:00;19.90;60.10
47791;DHT22;33547;49.044;1.156;2022-11-23T06:51:26;19.90;60.10
47791;DHT22;33547;49.044;1.156;2022-11-23T06:53:53;20.00;60.10
47791;DHT22;33547;49.044;1.156;2022-11-23T06:56:18;20.00;60.40
47791;DHT22;33547;49.044;1.156;2022-11-23T06:58:44;20.00;60.30
47791;DHT22;33547;49.044;1.156;2022-11-23T07:01:10;20.10;60.30
47791;DHT22;33547;49.044;1.156;2022-11-23T07:03:36;20.10;60.30
47791;DHT22;33547;49.044;1.156;2022-11-23T07:06:06;20.10;60.20
47791;DHT22;33547;49.044;1.156;2022-11-23T07:08:33;20.10;60.20
47791;DHT22;33547;49.044;1.156;2022-11-23T07:11:02;20.10;60.00
47791;DHT22;33547;49.044;1.156;2022-11-23T07:13:28;20.10;59.90
47791;DHT22;33547;49.044;1.156;2022-11-23T07:15:56;20.10;59.80
47791;DHT22;33547;49.044;1.156;2022-11-23T07:18:22;20.10;59.80
47791;DHT22;33547;49.044;1.156;2022-11-23T07:20:48;20.10;59.60
47791;DHT22;33547;49.044;1.156;2022-11-23T07:23:13;20.10;59.50
47791;DHT22;33547;49.044;1.156;2022-11-23T07:25:39;20.10;59.40
47791;DHT22;33547;49.044;1.156;2022-11-23T07:28:06;20.10;59.30
47791;DHT22;33547;49.044;1.156;2022-11-23T07:30:33;20.00;59.00
47791;DHT22;33547;49.044;1.156;2022-11-23T07:33:01;20.00;59.00
47791;DHT22;33547;49.044;1.156;2022-11-23T07:35:29;20.00;58.90
47791;DHT22;33547;49.044;1.156;2022-11-23T07:37:56;20.00;58.90
47791;DHT22;33547;49.044;1.156;2022-11-23T07:40:21;20.00;58.80
47791;DHT22;33547;49.044;1.156;2022-11-23T07:42:47;20.00;58.80
47791;DHT22;33547;49.044;1.156;2022-11-23T07:45:13;20.00;58.80
47791;DHT22;33547;49.044;1.156;2022-11-23T07:47:39;20.00;58.70
47791;DHT22;33547;49.044;1.156;2022-11-23T07:50:06;20.00;58.70
47791;DHT22;33547;49.044;1.156;2022-11-23T07:52:35;20.00;59.20
47791;DHT22;33547;49.044;1.156;2022-11-23T07:55:01;20.00;58.50
47791;DHT22;33547;49.044;1.156;2022-11-23T07:57:27;20.10;58.50
47791;DHT22;33547;49.044;1.156;2022-11-23T07:59:53;20.10;58.40
47791;DHT22;33547;49.044;1.156;2022-11-23T08:02:19;20.10;58.30
47791;DHT22;33547;49.044;1.156;2022-11-23T08:04:45;20.10;58.30
47791;DHT22;33547;49.044;1.156;2022-11-23T08:07:11;20.10;58.20
47791;DHT22;33547;49.044;1.156;2022-11-23T08:09:37;20.10;58.10
47791;DHT22;33547;49.044;1.156;2022-11-23T08:12:04;20.10;58.10
47791;DHT22;33547;49.044;1.156;2022-11-23T08:14:30;20.10;58.10
47791;DHT22;33547;49.044;1.156;2022-11-23T08:16:56;20.10;58.10
47791;DHT22;33547;49.044;1.156;2022-11-23T08:19:22;20.20;58.00
47791;DHT22;33547;49.044;1.156;2022-11-23T08:21:48;20.20;58.10
47791;DHT22;33547;49.044;1.156;2022-11-23T08:24:13;20.10;57.90
47791;DHT22;33547;49.044;1.156;2022-11-23T08:26:39;20.20;57.90
47791;DHT22;33547;49.044;1.156;2022-11-23T08:29:05;20.20;57.90
47791;DHT22;33547;49.044;1.156;2022-11-23T08:31:31;20.20;57.80
47791;DHT22;33547;49.044;1.156;2022-11-23T08:33:57;20.20;57.80
47791;DHT22;33547;49.044;1.156;2022-11-23T08:36:23;20.20;57.70
47791;DHT22;33547;49.044;1.156;2022-11-23T08:38:49;20.20;57.80
47791;DHT22;33547;49.044;1.156;2022-11-23T08:41:16;20.20;57.70
47791;DHT22;33547;49.044;1.156;2022-11-23T08:43:49;20.20;57.60
47791;DHT22;33547;49.044;1.156;2022-11-23T08:46:16;20.20;57.60
47791;DHT22;33547;49.044;1.156;2022-11-23T08:48:42;20.20;57.50
47791;DHT22;33547;49.044;1.156;2022-11-23T08:51:08;20.30;57.60
47791;DHT22;33547;49.044;1.156;2022-11-23T08:53:35;20.30;57.50
47791;DHT22;33547;49.044;1.156;2022-11-23T08:56:02;20.20;57.50
47791;DHT22;33547;49.044;1.156;2022-11-23T08:58:29;20.20;57.40
47791;DHT22;33547;49.044;1.156;2022-11-23T09:00:55;20.20;57.50
47791;DHT22;33547;49.044;1.156;2022-11-23T09:03:21;20.20;57.40
47791;DHT22;33547;49.044;1.156;2022-11-23T09:05:47;20.20;57.40
47791;DHT22;33547;49.044;1.156;2022-11-23T09:08:13;20.20;57.30
47791;DHT22;33547;49.044;1.156;2022-11-23T09:10:41;20.20;57.30
47791;DHT22;33547;49.044;1.156;2022-11-23T09:13:07;20.20;57.20
47791;DHT22;33547;49.044;1.156;2022-11-23T09:15:32;20.20;57.30
47791;DHT22;33547;49.044;1.156;2022-11-23T09:17:58;20.10;57.20
47791;DHT22;33547;49.044;1.156;2022-11-23T09:20:25;20.10;57.20
47791;DHT22;33547;49.044;1.156;2022-11-23T09:22:54;20.10;57.10
47791;DHT22;33547;49.044;1.156;2022-11-23T09:25:21;20.00;57.10
47791;DHT22;33547;49.044;1.156;2022-11-23T09:27:48;20.10;57.10
47791;DHT22;33547;49.044;1.156;2022-11-23T09:30:15;20.00;57.00
47791;DHT22;33547;49.044;1.156;2022-11-23T09:32:41;20.00;57.00
47791;DHT22;33547;49.044;1.156;2022-11-23T09:35:07;20.00;57.10
47791;DHT22;33547;49.044;1.156;2022-11-23T09:37:33;19.90;56.90
47791;DHT22;33547;49.044;1.156;2022-11-23T09:39:59;19.90;56.70
47791;DHT22;33547;49.044;1.156;2022-11-23T09:45:48;19.90;56.50
47791;DHT22;33547;49.044;1.156;2022-11-23T09:51:19;20.00;56.60
47791;DHT22;33547;49.044;1.156;2022-11-23T09:53:48;20.00;56.50
47791;DHT22;33547;49.044;1.156;2022-11-23T09:56:33;20.00;56.60
47791;DHT22;33547;49.044;1.156;2022-11-23T09:59:13;20.00;56.50
47791;DHT22;33547;49.044;1.156;2022-11-23T10:01:57;20.10;56.50
47791;DHT22;33547;49.044;1.156;2022-11-23T10:04:32;20.10;56.50
47791;DHT22;33547;49.044;1.156;2022-11-23T10:10:44;20.10;56.40
47791;DHT22;33547;49.044;1.156;2022-11-23T10:13:43;20.10;56.40
47791;DHT22;33547;49.044;1.156;2022-11-23T10:22:04;20.10;56.40
47791;DHT22;33547;49.044;1.156;2022-11-23T10:24:42;20.20;56.50
47791;DHT22;33547;49.044;1.156;2022-11-23T10:27:16;20.10;56.40
47791;DHT22;33547;49.044;1.156;2022-11-23T10:29:45;20.20;56.40
47791;DHT22;33547;49.044;1.156;2022-11-23T10:32:36;20.20;56.40
47791;DHT22;33547;49.044;1.156;2022-11-23T10:35:07;20.20;56.30
47791;DHT22;33547;49.044;1.156;2022-11-23T10:37:40;20.20;56.40
47791;DHT22;33547;49.044;1.156;2022-11-23T10:40:18;20.20;56.40
47791;DHT22;33547;49.044;1.156;2022-11-23T10:42:52;20.30;56.40
47791;DHT22;33547;49.044;1.156;2022-11-23T10:45:26;20.30;56.30
47791;DHT22;33547;49.044;1.156;2022-11-23T10:47:57;20.30;56.40
47791;DHT22;33547;49.044;1.156;2022-11-23T10:50:35;20.20;56.20
47791;DHT22;33547;49.044;1.156;2022-11-23T10:55:56;20.20;56.30
47791;DHT22;33547;49.044;1.156;2022-11-23T10:58:30;20.20;56.10
47791;DHT22;33547;49.044;1.156;2022-11-23T11:01:13;20.20;56.20
47791;DHT22;33547;49.044;1.156;2022-11-23T11:03:54;20.20;56.20
47791;DHT22;33547;49.044;1.156;2022-11-23T11:06:32;20.20;56.30
47791;DHT22;33547;49.044;1.156;2022-11-23T11:09:04;20.10;56.20
47791;DHT22;33547;49.044;1.156;2022-11-23T11:11:46;20.10;56.30
47791;DHT22;33547;49.044;1.156;2022-11-23T11:14:15;20.10;56.40
47791;DHT22;33547;49.044;1.156;2022-11-23T11:16:55;20.10;56.40
47791;DHT22;33547;49.044;1.156;2022-11-23T11:19:30;20.10;56.40
47791;DHT22;33547;49.044;1.156;2022-11-23T11:21:59;20.00;56.30
47791;DHT22;33547;49.044;1.156;2022-11-23T11:24:34;20.00;56.10
47791;DHT22;33547;49.044;1.156;2022-11-23T11:27:05;20.00;56.00
47791;DHT22;33547;49.044;1.156;2022-11-23T11:32:20;20.00;56.10
47791;DHT22;33547;49.044;1.156;2022-11-23T11:34:57;19.90;55.80
47791;DHT22;33547;49.044;1.156;2022-11-23T11:37:35;20.00;56.00
47791;DHT22;33547;49.044;1.156;2022-11-23T11:46:13;20.00;56.00
47791;DHT22;33547;49.044;1.156;2022-11-23T11:49:36;20.10;55.90
47791;DHT22;33547;49.044;1.156;2022-11-23T11:52:13;20.10;55.90
47791;DHT22;33547;49.044;1.156;2022-11-23T11:55:10;20.10;55.90
47791;DHT22;33547;49.044;1.156;2022-11-23T11:57:46;20.20;56.00
47791;DHT22;33547;49.044;1.156;2022-11-23T12:00:17;20.20;55.90
47791;DHT22;33547;49.044;1.156;2022-11-23T12:06:03;20.20;55.90
47791;DHT22;33547;49.044;1.156;2022-11-23T12:08:44;20.20;56.00
47791;DHT22;33547;49.044;1.156;2022-11-23T12:11:12;20.20;56.10
47791;DHT22;33547;49.044;1.156;2022-11-23T12:13:41;20.20;56.10
47791;DHT22;33547;49.044;1.156;2022-11-23T12:16:24;20.20;56.10
47791;DHT22;33547;49.044;1.156;2022-11-23T12:24:55;20.20;56.10
47791;DHT22;33547;49.044;1.156;2022-11-23T12:33:22;20.20;56.10
47791;DHT22;33547;49.044;1.156;2022-11-23T12:44:48;20.20;56.20
47791;DHT22;33547;49.044;1.156;2022-11-23T12:59:09;20.20;56.80
47791;DHT22;33547;49.044;1.156;2022-11-23T13:01:38;20.10;57.10
47791;DHT22;33547;49.044;1.156;2022-11-23T13:13:17;19.60;53.80
47791;DHT22;33547;49.044;1.156;2022-11-23T13:22:13;19.20;53.20
47791;DHT22;33547;49.044;1.156;2022-11-23T13:28:03;19.00;53.10
47791;DHT22;33547;49.044;1.156;2022-11-23T13:30:32;18.90;52.50
47791;DHT22;33547;49.044;1.156;2022-11-23T13:40:44;18.40;53.10
47791;DHT22;33547;49.044;1.156;2022-11-23T13:46:25;18.40;53.40
47791;DHT22;33547;49.044;1.156;2022-11-23T13:48:56;18.30;53.50
47791;DHT22;33547;49.044;1.156;2022-11-23T13:54:19;18.40;54.20
47791;DHT22;33547;49.044;1.156;2022-11-23T13:56:57;18.40;54.30
47791;DHT22;33547;49.044;1.156;2022-11-23T14:04:40;18.50;54.70
47791;DHT22;33547;49.044;1.156;2022-11-23T14:07:30;18.60;54.60
47791;DHT22;33547;49.044;1.156;2022-11-23T14:10:05;18.60;54.70
47791;DHT22;33547;49.044;1.156;2022-11-23T14:13:14;18.70;54.70
47791;DHT22;33547;49.044;1.156;2022-11-23T14:15:50;18.80;54.70
47791;DHT22;33547;49.044;1.156;2022-11-23T14:21:13;18.90;54.80
47791;DHT22;33547;49.044;1.156;2022-11-23T14:26:54;19.00;54.80
47791;DHT22;33547;49.044;1.156;2022-11-23T14:33:20;19.00;55.00
47791;DHT22;33547;49.044;1.156;2022-11-23T14:36:16;19.10;55.20
47791;DHT22;33547;49.044;1.156;2022-11-23T14:42:17;19.20;55.30
47791;DHT22;33547;49.044;1.156;2022-11-23T14:44:45;19.20;55.20
47791;DHT22;33547;49.044;1.156;2022-11-23T14:47:12;19.20;55.40
47791;DHT22;33547;49.044;1.156;2022-11-23T14:49:48;19.30;55.30
47791;DHT22;33547;49.044;1.156;2022-11-23T14:52:31;19.30;55.40
47791;DHT22;33547;49.044;1.156;2022-11-23T14:55:01;19.30;55.40
47791;DHT22;33547;49.044;1.156;2022-11-23T14:57:39;19.30;55.40
47791;DHT22;33547;49.044;1.156;2022-11-23T15:00:28;19.30;55.40
47791;DHT22;33547;49.044;1.156;2022-11-23T15:03:05;19.30;55.40
47791;DHT22;33547;49.044;1.156;2022-11-23T15:05:34;19.40;55.50
47791;DHT22;33547;49.044;1.156;2022-11-23T15:08:26;19.40;55.50
47791;DHT22;33547;49.044;1.156;2022-11-23T15:11:19;19.50;55.60
47791;DHT22;33547;49.044;1.156;2022-11-23T15:13:51;19.50;55.60
47791;DHT22;33547;49.044;1.156;2022-11-23T15:16:19;19.50;55.60
47791;DHT22;33547;49.044;1.156;2022-11-23T15:18:47;19.50;55.50
47791;DHT22;33547;49.044;1.156;2022-11-23T15:21:18;19.60;55.60
47791;DHT22;33547;49.044;1.156;2022-11-23T15:23:53;19.60;55.60
47791;DHT22;33547;49.044;1.156;2022-11-23T15:26:31;19.60;55.60
47791;DHT22;33547;49.044;1.156;2022-11-23T15:28:58;19.70;55.70
47791;DHT22;33547;49.044;1.156;2022-11-23T15:31:34;19.70;55.60
47791;DHT22;33547;49.044;1.156;2022-11-23T15:34:03;19.70;55.60
47791;DHT22;33547;49.044;1.156;2022-11-23T15:36:36;19.70;55.60
47791;DHT22;33547;49.044;1.156;2022-11-23T15:39:03;19.70;55.60
47791;DHT22;33547;49.044;1.156;2022-11-23T15:41:35;19.70;55.60
47791;DHT22;33547;49.044;1.156;2022-11-23T15:44:21;19.80;55.60
47791;DHT22;33547;49.044;1.156;2022-11-23T15:46:52;19.80;55.60
47791;DHT22;33547;49.044;1.156;2022-11-23T15:49:19;19.80;56.20
47791;DHT22;33547;49.044;1.156;2022-11-23T15:51:45;19.80;55.60
47791;DHT22;33547;49.044;1.156;2022-11-23T15:54:20;19.80;55.60
47791;DHT22;33547;49.044;1.156;2022-11-23T15:56:49;19.80;55.60
47791;DHT22;33547;49.044;1.156;2022-11-23T15:59:54;19.80;55.60
47791;DHT22;33547;49.044;1.156;2022-11-23T16:02:20;19.90;55.70
47791;DHT22;33547;49.044;1.156;2022-11-23T16:05:12;19.90;55.60
47791;DHT22;33547;49.044;1.156;2022-11-23T16:10:26;19.90;55.70
47791;DHT22;33547;49.044;1.156;2022-11-23T16:13:04;19.90;55.70
47791;DHT22;33547;49.044;1.156;2022-11-23T16:20:47;19.90;55.60
47791;DHT22;33547;49.044;1.156;2022-11-23T16:23:20;19.90;55.60
47791;DHT22;33547;49.044;1.156;2022-11-23T16:26:02;19.90;55.60
47791;DHT22;33547;49.044;1.156;2022-11-23T16:28:31;19.90;55.60
47791;DHT22;33547;49.044;1.156;2022-11-23T16:31:00;19.90;55.60
47791;DHT22;33547;49.044;1.156;2022-11-23T16:33:26;19.90;55.60
47791;DHT22;33547;49.044;1.156;2022-11-23T16:35:52;19.90;55.50
47791;DHT22;33547;49.044;1.156;2022-11-23T16:38:18;19.80;55.50
47791;DHT22;33547;49.044;1.156;2022-11-23T16:40:45;19.90;56.10
47791;DHT22;33547;49.044;1.156;2022-11-23T16:43:13;19.80;55.50
47791;DHT22;33547;49.044;1.156;2022-11-23T16:45:48;19.80;55.40
47791;DHT22;33547;49.044;1.156;2022-11-23T16:50:50;19.90;55.50
47791;DHT22;33547;49.044;1.156;2022-11-23T16:53:17;19.90;55.50
47791;DHT22;33547;49.044;1.156;2022-11-23T16:55:50;19.90;55.50
47791;DHT22;33547;49.044;1.156;2022-11-23T16:58:18;20.00;55.50
47791;DHT22;33547;49.044;1.156;2022-11-23T17:00:44;19.90;55.50
47791;DHT22;33547;49.044;1.156;2022-11-23T17:03:18;20.00;55.50
47791;DHT22;33547;49.044;1.156;2022-11-23T17:05:45;20.00;55.50
47791;DHT22;33547;49.044;1.156;2022-11-23T17:08:11;20.00;55.50
47791;DHT22;33547;49.044;1.156;2022-11-23T17:10:39;20.00;55.50
47791;DHT22;33547;49.044;1.156;2022-11-23T17:13:19;20.00;55.40
47791;DHT22;33547;49.044;1.156;2022-11-23T17:15:47;20.00;55.40
47791;DHT22;33547;49.044;1.156;2022-11-23T17:18:14;20.10;55.40
47791;DHT22;33547;49.044;1.156;2022-11-23T17:20:41;20.10;55.30
47791;DHT22;33547;49.044;1.156;2022-11-23T17:23:06;20.10;55.20
47791;DHT22;33547;49.044;1.156;2022-11-23T17:25:33;20.20;55.20
47791;DHT22;33547;49.044;1.156;2022-11-23T17:27:59;20.20;55.20
47791;DHT22;33547;49.044;1.156;2022-11-23T17:30:26;20.20;55.30
47791;DHT22;33547;49.044;1.156;2022-11-23T17:32:53;20.20;55.50
47791;DHT22;33547;49.044;1.156;2022-11-23T17:35:19;20.20;55.60
47791;DHT22;33547;49.044;1.156;2022-11-23T17:37:45;20.20;55.70
47791;DHT22;33547;49.044;1.156;2022-11-23T17:40:16;20.20;55.80
47791;DHT22;33547;49.044;1.156;2022-11-23T17:42:43;20.30;55.80
47791;DHT22;33547;49.044;1.156;2022-11-23T17:45:09;20.20;55.80
47791;DHT22;33547;49.044;1.156;2022-11-23T17:47:36;20.20;55.80
47791;DHT22;33547;49.044;1.156;2022-11-23T17:50:03;20.20;55.90
47791;DHT22;33547;49.044;1.156;2022-11-23T17:52:31;20.20;56.10